Data for 11/23/2017

Time Sea-Level Adjusted Pressure Absolute Pressure Temperature Relative Humidity Dew Point   
(mb) (inHg) (mb) (inHg) (C) (F) (%) (C) (F)
00:05 1021 30.15 851 25.13 7.9 46.2 59 0.3 32.6
00:10 1021 30.15 851 25.13 8 46.5 59 0.4 32.8
00:15 1021 30.15 850 25.1 7.9 46.2 60 0.6 33
00:20 1021 30.15 851 25.13 7.4 45.4 61 0.5 32.9
00:25 1021 30.15 851 25.13 7.2 45 61 0.3 32.6
00:30 1021 30.15 851 25.13 7.5 45.4 60 0.3 32.5
00:35 1021 30.15 851 25.13 7.6 45.7 60 0.3 32.6
00:40 1021 30.15 850 25.1 8 46.4 57 0 32
00:45 1021 30.15 850 25.1 7.8 46.1 59 0.3 32.5
00:50 1021 30.15 850 25.1 7.7 45.8 60 0.4 32.7
00:55 1021 30.15 850 25.1 7.7 45.8 58 0.1 32.1
01:00 1021 30.15 850 25.1 8.3 46.9 57 0.3 32.5
01:05 1021 30.15 850 25.1 8.5 47.4 56 0.3 32.6
01:10 1021 30.15 850 25.1 8.2 46.8 58 0.6 33
01:15 1021 30.15 850 25.1 7.2 45 60 -0 31.9
01:20 1021 30.15 850 25.1 7.2 45 59 -0.3 31.5
01:25 1021 30.15 850 25.1 7.6 45.7 57 -0.3 31.5
01:30 1021 30.15 850 25.1 7.9 46.2 56 -0.3 31.5
01:35 1021 30.15 850 25.1 8.1 46.6 55 -0.3 31.5
01:40 1021 30.15 850 25.1 8.1 46.6 57 0.2 32.3
01:45 1021 30.15 850 25.1 8.1 46.6 54 -0.7 30.7
01:50 1021 30.15 850 25.1 8.3 47 55 -0.3 31.5
01:55 1021 30.15 850 25.1 8.2 46.8 53 -0.8 30.6
02:00 1020 30.12 850 25.1 8.4 47.1 54 -0.3 31.4
02:05 1020 30.12 850 25.1 8.5 47.3 53 -0.6 30.9
02:10 1020 30.12 850 25.1 8.8 47.8 52 -0.5 31
02:15 1021 30.15 850 25.1 8.6 47.4 53 -0.4 31.2
02:20 1021 30.15 850 25.1 8.1 46.6 54 -0.6 30.8
02:25 1021 30.15 850 25.1 8.6 47.4 52 -0.7 30.7
02:30 1021 30.15 850 25.1 8.9 48.1 51 -0.7 30.7
02:35 1021 30.15 850 25.1 9.1 48.4 51 -0.5 31.1
02:40 1021 30.15 850 25.1 8.9 48 51 -0.6 30.9
02:45 1021 30.15 850 25.1 8.9 48.1 51 -0.7 30.7
02:50 1020 30.12 850 25.1 9.7 49.4 48 -0.8 30.5
02:55 1020 30.12 850 25.1 9 48.1 54 0.2 32.4
03:00 1020 30.12 850 25.1 8.2 46.8 53 -0.7 30.7
03:05 1020 30.12 850 25.1 8.3 46.9 53 -0.7 30.7
03:10 1020 30.12 849 25.07 8.4 47 53 -0.6 30.9
03:15 1020 30.12 849 25.07 8.6 47.5 53 -0.5 31.1
03:20 1020 30.12 849 25.07 8 46.4 53 -0.9 30.4
03:25 1020 30.12 849 25.07 8.6 47.5 51 -0.8 30.6
03:30 1020 30.12 849 25.07 8.9 48.1 50 -0.8 30.6
03:35 1020 30.12 849 25.07 9.2 48.5 50 -0.7 30.8
03:40 1020 30.12 849 25.07 9.2 48.5 52 -0.3 31.5
03:45 1020 30.12 849 25.07 8.3 47 54 -0.4 31.2
03:50 1020 30.12 849 25.07 8 46.4 53 -0.9 30.3
03:55 1020 30.12 849 25.07 8.1 46.5 53 -0.8 30.5
04:00 1020 30.12 849 25.07 7.8 46.1 54 -0.8 30.5
04:05 1020 30.12 849 25.07 8 46.4 53 -0.9 30.5
04:10 1020 30.12 849 25.07 7.8 46 55 -0.7 30.7
04:15 1019 30.09 849 25.07 7.5 45.5 56 -0.8 30.6
04:20 1019 30.09 848 25.04 7.1 44.8 58 -0.7 30.7
04:25 1019 30.09 848 25.04 6.6 43.9 59 -0.8 30.6
04:30 1019 30.09 848 25.04 6.6 43.9 58 -1 30.1
04:35 1019 30.09 848 25.04 6.9 44.4 57 -0.9 30.3
04:40 1019 30.09 848 25.04 7 44.5 57 -1 30.2
04:45 1019 30.09 848 25.04 7.3 45.2 56 -0.9 30.4
04:50 1019 30.09 848 25.04 7.4 45.4 56 -0.7 30.7
04:55 1019 30.09 848 25.04 7.1 44.7 57 -0.9 30.4
05:00 1019 30.09 848 25.04 7.7 45.9 53 -1.2 29.9
05:05 1019 30.09 848 25.04 8.2 46.7 52 -1 30.3
05:10 1019 30.09 848 25.04 8.2 46.8 53 -0.8 30.6
05:15 1019 30.09 848 25.04 8.2 46.7 52 -1 30.3
05:20 1019 30.09 848 25.04 8.3 46.9 53 -0.8 30.5
05:25 1018 30.06 848 25.04 8.1 46.6 54 -0.7 30.7
05:30 1018 30.06 847 25.01 7.9 46.3 54 -0.7 30.7
05:35 1018 30.06 847 25.01 7.7 45.8 55 -0.9 30.4
05:40 1018 30.06 847 25.01 7.9 46.3 54 -0.8 30.5
05:45 1018 30.06 847 25.01 7.8 46 55 -0.6 30.9
05:50 1018 30.06 847 25.01 7.5 45.5 55 -0.9 30.3
05:55 1018 30.06 847 25.01 7.9 46.2 54 -0.9 30.4
06:00 1018 30.06 847 25.01 8.2 46.7 53 -0.9 30.3
06:05 1018 30.06 847 25.01 8.3 46.9 53 -0.8 30.5
06:10 1018 30.06 847 25.01 7.8 46.1 54 -0.8 30.5
06:15 1018 30.06 847 25.01 8.3 46.9 51 -1.1 30
06:20 1018 30.06 847 25.01 8.5 47.2 50 -1.3 29.7
06:25 1018 30.06 847 25.01 8.9 47.9 48 -1.5 29.4
06:30 1018 30.06 847 25.01 9.3 48.8 46 -1.7 29
06:35 1018 30.06 847 25.01 9.8 49.6 45 -1.6 29.2
06:40 1018 30.06 847 25.01 9.8 49.7 42 -2.6 27.3
06:45 1018 30.06 847 25.01 11.8 53.2 35 -3.3 26
06:50 1018 30.06 847 25.01 11.9 53.5 37 -2.4 27.7
06:55 1018 30.06 847 25.01 11.8 53.2 36 -2.9 26.8
07:00 1018 30.06 847 25.01 11.9 53.5 37 -2.4 27.7
07:05 1018 30.06 847 25.01 11.7 53.1 40 -1.3 29.6
07:10 1018 30.06 847 25.01 11.2 52.2 37 -3 26.7
07:15 1018 30.06 847 25.01 12.2 53.9 36 -2.3 27.9
07:20 1018 30.06 847 25.01 12.4 54.3 35 -2.5 27.6
07:25 1018 30.06 847 25.01 12.5 54.5 37 -1.7 29
07:30 1018 30.06 847 25.01 12.7 54.9 35 -2.4 27.7
07:35 1018 30.06 847 25.01 13 55.4 35 -2.2 28.1
07:40 1018 30.06 847 25.01 13.6 56.5 33 -2.3 27.9
07:45 1018 30.06 847 25.01 14.1 57.4 31 -2.8 27
07:50 1018 30.06 847 25.01 14.6 58.4 32 -1.8 28.8
07:55 1018 30.06 847 25.01 14.1 57.5 32 -2.1 28.2
08:00 1018 30.06 847 25.01 14.3 57.7 32 -2.2 28
08:05 1018 30.06 847 25.01 14.5 58.2 32 -2.1 28.3
08:10 1018 30.06 847 25.01 14.7 58.5 32 -1.9 28.6
08:15 1017 30.03 847 25.01 14.6 58.3 32 -2 28.5
08:20 1017 30.03 847 25.01 14.6 58.2 32 -1.8 28.8
08:25 1017 30.03 846 24.98 14.7 58.4 32 -1.7 28.9
08:30 1017 30.03 846 24.98 14.6 58.3 33 -1.6 29.2
08:35 1017 30.03 846 24.98 14.4 57.9 33 -1.7 28.9
08:40 1017 30.03 846 24.98 14.7 58.5 32 -1.7 28.9
08:45 1017 30.03 846 24.98 15 58.9 32 -1.4 29.6
08:50 1017 30.03 846 24.98 14.7 58.4 33 -1.3 29.7
08:55 1017 30.03 846 24.98 14.5 58.1 34 -1.2 29.8
09:00 1017 30.03 846 24.98 14.4 57.9 35 -0.8 30.6
09:05 1017 30.03 846 24.98 14 57.3 37 -0.5 31.1
09:10 1017 30.03 846 24.98 13.6 56.6 39 0.1 32.1
09:15 1017 30.03 846 24.98 13 55.5 40 -0.2 31.6
09:20 1017 30.03 846 24.98 13.3 55.9 39 -0.4 31.2
09:25 1017 30.03 846 24.98 13.7 56.7 37 -0.6 31
09:30 1017 30.03 846 24.98 13.9 57 38 -0.1 31.7
09:35 1016 30 846 24.98 14 57.1 35 -1.3 29.6
09:40 1016 30 845 24.95 14.8 58.6 35 -0.6 31
09:45 1016 30 846 24.98 14.7 58.5 34 -1 30.2
09:50 1016 30 845 24.95 15.2 59.3 33 -1.1 30.1
09:55 1016 30 845 24.95 15.6 60.1 31 -1.6 29.2
10:00 1016 30 845 24.95 15.8 60.4 32 -1 30.2
10:05 1016 30 845 24.95 16.4 61.6 30 -1.1 30
10:10 1016 30 845 24.95 17.1 62.7 29 -0.8 30.5
10:15 1016 30 845 24.95 17.4 63.4 31 0.2 32.3
10:20 1016 30 845 24.95 17.3 63.1 30 -0.2 31.6
10:25 1016 30 845 24.95 17.3 63.2 30 -0.2 31.6
10:30 1016 30 845 24.95 17.2 63 30 -0.4 31.3
10:35 1016 30 845 24.95 17.6 63.7 29 -0.3 31.5
10:40 1016 30 845 24.95 17.9 64.2 29 -0.2 31.6
10:45 1015 29.97 845 24.95 17.7 63.8 29 -0.6 30.9
10:50 1015 29.97 845 24.95 17.7 63.8 28 -0.8 30.6
10:55 1015 29.97 844 24.92 17.9 64.3 28 -0.7 30.7
11:00 1015 29.97 844 24.92 18 64.3 28 -0.5 31.2
11:05 1015 29.97 844 24.92 18 64.4 29 0.1 32.1
11:10 1015 29.97 844 24.92 17.9 64.1 29 -0.2 31.6
11:15 1015 29.97 844 24.92 17.6 63.6 28 -0.9 30.4
11:20 1015 29.97 844 24.92 17.3 63.1 30 -0.3 31.4
11:25 1014 29.94 844 24.92 17.2 63 31 -0.1 31.8
11:30 1014 29.94 843 24.89 17.1 62.7 30 -0.6 31
11:35 1014 29.94 843 24.89 17.1 62.8 29 -0.8 30.5
11:40 1014 29.94 843 24.89 17.1 62.8 29 -1 30.3
11:45 1014 29.94 843 24.89 17.1 62.8 30 -0.6 30.9
11:50 1014 29.94 843 24.89 17.2 62.9 29 -0.7 30.8
11:55 1014 29.94 843 24.89 17.1 62.8 30 -0.6 30.8
12:00 1014 29.94 843 24.89 17.1 62.8 29 -0.8 30.5
12:05 1013 29.91 843 24.89 17.2 62.9 30 -0.6 30.8
12:10 1013 29.91 843 24.89 17.1 62.8 29 -0.9 30.4
12:15 1013 29.91 843 24.89 17.1 62.9 29 -0.7 30.7
12:20 1013 29.91 842 24.86 17.2 62.9 29 -0.7 30.8
12:25 1013 29.91 842 24.86 17.2 62.9 29 -0.8 30.6
12:30 1013 29.91 842 24.86 17.2 62.9 28 -1.6 29.2
12:35 1013 29.91 842 24.86 17.2 62.9 29 -0.9 30.3
12:40 1013 29.91 842 24.86 17.2 62.9 29 -0.9 30.4
12:45 1013 29.91 842 24.86 17.2 62.9 30 -0.6 30.8
12:50 1013 29.91 842 24.86 17 62.7 29 -1.2 29.8
12:55 1013 29.91 842 24.86 17.1 62.8 29 -1.2 29.9
13:00 1013 29.91 842 24.86 17.2 62.9 28 -1.5 29.3
13:05 1013 29.91 842 24.86 17.3 63.2 28 -1.3 29.7
13:10 1013 29.91 842 24.86 17.3 63.1 28 -1.3 29.7
13:15 1013 29.91 842 24.86 17.2 63 28 -1.4 29.5
13:20 1013 29.91 842 24.86 17.2 63 28 -1.2 29.9
13:25 1012 29.88 842 24.86 17.2 63 27 -1.7 28.9
13:30 1012 29.88 842 24.86 17.3 63.1 28 -1.4 29.5
13:35 1012 29.88 842 24.86 17.1 62.8 29 -1.2 29.9
13:40 1012 29.88 842 24.86 17.1 62.7 29 -0.9 30.4
13:45 1012 29.88 842 24.86 17.1 62.7 29 -1.1 29.9
13:50 1012 29.88 841 24.83 17 62.7 29 -1 30.2
13:55 1012 29.88 841 24.83 17 62.6 28 -1.7 28.9
14:00 1012 29.88 841 24.83 17 62.6 29 -0.9 30.4
14:05 1012 29.88 841 24.83 16.8 62.3 30 -1 30.3
14:10 1012 29.88 841 24.83 16.8 62.3 30 -1 30.3
14:15 1012 29.88 841 24.83 16.8 62.2 29 -1.2 29.9
14:20 1012 29.88 841 24.83 16.8 62.2 29 -1.2 29.9
14:25 1012 29.88 841 24.83 16.7 62 30 -1 30.3
14:30 1012 29.88 841 24.83 16.6 61.8 30 -1.1 29.9
14:35 1012 29.88 841 24.83 16.5 61.7 30 -1 30.2
14:40 1012 29.88 841 24.83 16.5 61.6 30 -1.1 30
14:45 1012 29.88 841 24.83 16.4 61.4 30 -0.9 30.3
14:50 1012 29.88 841 24.83 16.3 61.3 30 -1.1 30
14:55 1012 29.88 841 24.83 16.1 61 32 -0.6 30.8
15:00 1012 29.88 841 24.83 15.9 60.5 31 -1.2 29.9
15:05 1012 29.88 841 24.83 15.8 60.5 32 -0.9 30.4
15:10 1012 29.88 841 24.83 15.6 60 32 -0.9 30.5
15:15 1011 29.85 841 24.83 15.4 59.6 32 -1 30.2
15:20 1011 29.85 841 24.83 15.3 59.6 32 -1.2 29.9
15:25 1011 29.85 841 24.83 15.1 59.2 33 -1.1 30.1
15:30 1011 29.85 841 24.83 15.1 59.1 33 -1.2 29.9
15:35 1011 29.85 841 24.83 14.9 58.7 34 -1 30.3
15:40 1011 29.85 841 24.83 14.5 58.1 34 -1.1 30
15:45 1011 29.85 840 24.81 14.3 57.7 35 -1.1 30.1
15:50 1011 29.85 840 24.81 14.1 57.3 34 -1.6 29.2
15:55 1011 29.85 840 24.81 14.2 57.5 34 -1.6 29.2
16:00 1011 29.85 840 24.81 14.2 57.5 34 -1.4 29.4
16:05 1011 29.85 840 24.81 14 57.2 34 -1.5 29.4
16:10 1011 29.85 840 24.81 13.9 56.9 35 -1.4 29.4
16:15 1011 29.85 840 24.81 14 57.1 33 -2 28.5
16:20 1011 29.85 840 24.81 14 57.1 34 -1.6 29.1
16:25 1011 29.85 840 24.81 14 57.1 32 -2.4 27.6
16:30 1010 29.83 840 24.81 14.2 57.6 32 -2.2 28.1
16:35 1010 29.83 840 24.81 14.3 57.7 31 -2.5 27.6
16:40 1010 29.83 839 24.78 14.5 58.1 31 -2.4 27.7
16:45 1010 29.83 839 24.78 14.3 57.8 31 -2.4 27.7
16:50 1010 29.83 839 24.78 14.2 57.5 32 -2.4 27.7
16:55 1010 29.83 839 24.78 14.1 57.3 32 -2.3 27.8
17:00 1010 29.83 839 24.78 14 57.1 32 -2.5 27.6
17:05 1010 29.83 839 24.78 14.1 57.3 32 -2.5 27.6
17:10 1010 29.83 839 24.78 14 57.3 32 -2.3 27.8
17:15 1010 29.83 839 24.78 14 57.2 32 -2.5 27.5
17:20 1010 29.83 839 24.78 13.9 57.1 32 -2.4 27.6
17:25 1010 29.83 839 24.78 13.8 56.9 32 -2.5 27.5
17:30 1010 29.83 839 24.78 13.9 57 31 -2.7 27.1
17:35 1010 29.83 839 24.78 13.9 57 31 -2.8 27
17:40 1010 29.83 839 24.78 13.9 57 31 -3 26.7
17:45 1010 29.83 839 24.78 14 57.1 30 -3.2 26.3
17:50 1010 29.83 839 24.78 14 57.3 31 -3 26.7
17:55 1010 29.83 839 24.78 14 57.1 30 -3.3 26.1
18:00 1010 29.83 839 24.78 14.2 57.5 29 -3.7 25.3
18:05 1009 29.8 839 24.78 14.3 57.8 29 -3.2 26.2
18:10 1009 29.8 839 24.78 14.2 57.5 27 -4.3 24.3
18:15 1009 29.8 838 24.75 14.5 58.1 28 -3.7 25.4
18:20 1009 29.8 838 24.75 14.3 57.7 28 -4.1 24.7
18:25 1009 29.8 838 24.75 14.3 57.7 27 -4.4 24.1
18:30 1009 29.8 838 24.75 14.4 58 27 -4.2 24.5
18:35 1009 29.8 838 24.75 14.3 57.7 28 -3.8 25.2
18:40 1009 29.8 838 24.75 14.1 57.3 29 -3.9 25
18:45 1009 29.8 838 24.75 14 57.2 29 -3.9 25
18:50 1009 29.8 838 24.75 14.3 57.7 27 -4.5 23.8
18:55 1009 29.8 838 24.75 14.4 57.9 28 -4 24.7
19:00 1009 29.8 838 24.75 14.2 57.6 28 -4 24.8
19:05 1009 29.8 838 24.75 13.9 57.1 29 -3.8 25.1
19:10 1008 29.77 838 24.75 14 57.2 27 -4.7 23.5
19:15 1008 29.77 837 24.72 14.4 57.9 26 -4.9 23.2
19:20 1008 29.77 837 24.72 14.5 58.1 26 -4.5 23.9
19:25 1008 29.77 837 24.72 14.2 57.6 27 -4.5 23.8
19:30 1008 29.77 837 24.72 14.1 57.3 27 -4.4 24.1
19:35 1008 29.77 837 24.72 14 57.2 28 -4.2 24.4
19:40 1008 29.77 837 24.72 13.8 56.8 29 -4.1 24.6
19:45 1008 29.77 837 24.72 13.7 56.6 28 -4.4 24
19:50 1008 29.77 837 24.72 13.7 56.7 28 -4.5 23.9
19:55 1008 29.77 837 24.72 14 57.2 26 -4.9 23.2
20:00 1008 29.77 837 24.72 14.1 57.4 27 -4.4 24.2
20:05 1008 29.77 837 24.72 14.1 57.4 27 -4.4 24.1
20:10 1008 29.77 837 24.72 14 57.1 28 -4.3 24.2
20:15 1008 29.77 837 24.72 13.8 56.9 28 -4.4 24.1
20:20 1008 29.77 837 24.72 13.8 56.8 28 -4.5 23.9
20:25 1008 29.77 837 24.72 13.7 56.7 28 -4.6 23.7
20:30 1008 29.77 837 24.72 13.7 56.6 28 -4.5 23.9
20:35 1008 29.77 837 24.72 13.8 56.8 27 -4.7 23.5
20:40 1008 29.77 837 24.72 13.8 56.8 28 -4.5 23.9
20:45 1007 29.74 837 24.72 13.8 56.8 28 -4.5 23.9
20:50 1008 29.77 837 24.72 13.7 56.6 28 -4.3 24.2
20:55 1007 29.74 837 24.72 13.7 56.6 28 -4.3 24.3
21:00 1007 29.74 837 24.72 13.7 56.6 29 -4.2 24.5
21:05 1007 29.74 837 24.72 13.7 56.6 29 -4 24.8
21:10 1007 29.74 837 24.72 13.6 56.5 29 -3.8 25.1
21:15 1008 29.77 837 24.72 13.7 56.6 30 -3.6 25.6
21:20 1008 29.77 837 24.72 13.6 56.5 30 -3.5 25.7
21:25 1008 29.77 837 24.72 13.5 56.3 31 -3.4 26
21:30 1008 29.77 837 24.72 13.2 55.8 32 -3.1 26.5
21:35 1007 29.74 837 24.72 13.1 55.5 31 -3.5 25.7
21:40 1007 29.74 836 24.69 13.2 55.7 32 -3.2 26.3
21:45 1007 29.74 836 24.69 13.2 55.7 31 -3.4 25.9
21:50 1007 29.74 836 24.69 13.1 55.6 32 -3.1 26.4
21:55 1007 29.74 836 24.69 13 55.4 32 -3.3 26.1
22:00 1007 29.74 836 24.69 13.1 55.6 32 -3.2 26.3
22:05 1007 29.74 836 24.69 13.1 55.5 31 -3.5 25.6
22:10 1007 29.74 836 24.69 13.4 56.1 31 -3.5 25.7
22:15 1007 29.74 836 24.69 13.6 56.5 31 -3.2 26.2
22:20 1007 29.74 836 24.69 13.4 56.1 32 -3.1 26.5
22:25 1007 29.74 836 24.69 13.2 55.8 32 -3.3 26.1
22:30 1007 29.74 836 24.69 13.5 56.2 32 -3 26.7
22:35 1007 29.74 836 24.69 13.4 56 32 -2.9 26.7
22:40 1008 29.77 837 24.72 13.3 56 32 -2.8 27
22:45 1008 29.77 837 24.72 13.4 56.1 33 -2.4 27.7
22:50 1009 29.8 838 24.75 13.1 55.5 37 -1.4 29.5
22:55 1009 29.8 838 24.75 11.9 53.4 59 4.3 39.7
23:00 1009 29.8 838 24.75 9.2 48.5 73 4.6 40.3
23:05 1009 29.8 838 24.75 7.8 46.1 78 4.2 39.6
23:10 1009 29.8 839 24.78 7.3 45.1 80 4.2 39.5
23:15 1010 29.83 839 24.78 7.1 44.7 82 4.1 39.4
23:20 1010 29.83 839 24.78 7 44.5 82 4.1 39.3
23:25 1010 29.83 839 24.78 7 44.7 81 4 39.2
23:30 1010 29.83 839 24.78 7.2 45 79 3.8 38.9
23:35 1010 29.83 839 24.78 7.3 45.2 79 3.9 39.1
23:40 1010 29.83 840 24.81 7.4 45.3 80 4.2 39.6
23:45 1010 29.83 840 24.81 7.2 45 81 4.1 39.4
23:50 1010 29.83 839 24.78 7.2 45 78 3.6 38.5
23:55 1010 29.83 840 24.81 7.2 44.9 80 4 39.1
24:00 1010 29.83 839 24.78 7.1 44.8 78 3.5 38.2